EWG2247 GCFV-EDDS
Flight info
| Callsign | EWG2247 |
|---|---|
| Flight time | 3h 43m |
| Altitude | 36000 |
| Route | KORAL UG5 SONSO DCT ADUBI DCT VJF/N0432F380 L27 MAR DCT ALCOL DCT LOGRO DCT ETANA DCT VTB DCT PALIO DCT SEGRE DCT YAKXU DCT RONNY DCT TOPTU DCT TOU DCT GAI DCT MEN DCT NINUN DCT LATAM DCT ETREK DCT LTP DCT SOPLO DCT OMASI DCT KINNI DCT LAMUR DCT KORED DCT BERSU N871 DITON T163 ZUE T125 REUTL REUTL5A |
| Aircraft | A320/M-SDE3FGHIRWY/LB1 |
Departure
| Time | 2026-05-04 15:23 |
|---|---|
| Airport | Fuerteventura Airport (GCFV) |
Arrival
| Time | 2026-05-04 19:06 |
|---|---|
| Airport | Stuttgart Airport (EDDS) |
| Time | Latitude | Longitude | Altitude | Speed | Heading |
|---|---|---|---|---|---|
| 2026-05-04 14:53 | 28.45436 | -13.86831 | 99 ft | 0 kts | 271° |
| 2026-05-04 14:53 | 28.45385 | -13.86836 | 99 ft | 0 kts | 272° |
| 2026-05-04 15:11 | 28.45384 | -13.86812 | 99 ft | 4 kts | 273° |
| 2026-05-04 15:12 | 28.45383 | -13.86782 | 99 ft | 3 kts | 268° |
| 2026-05-04 15:12 | 28.45386 | -13.86756 | 99 ft | 4 kts | 245° |
| 2026-05-04 15:12 | 28.45402 | -13.86737 | 99 ft | 4 kts | 195° |
| 2026-05-04 15:12 | 28.45428 | -13.86733 | 97 ft | 3 kts | 181° |
| 2026-05-04 15:13 | 28.45431 | -13.86733 | 97 ft | 0 kts | 182° |
| 2026-05-04 15:16 | 28.45423 | -13.86733 | 97 ft | 2 kts | 181° |
| 2026-05-04 15:16 | 28.45375 | -13.86718 | 99 ft | 5 kts | 122° |
| 2026-05-04 15:17 | 28.45371 | -13.86665 | 98 ft | 8 kts | 91° |
| 2026-05-04 15:17 | 28.45280 | -13.86570 | 95 ft | 14 kts | 181° |
| 2026-05-04 15:17 | 28.45179 | -13.86572 | 95 ft | 15 kts | 181° |
| 2026-05-04 15:18 | 28.45069 | -13.86576 | 96 ft | 17 kts | 182° |
| 2026-05-04 15:18 | 28.44945 | -13.86580 | 96 ft | 19 kts | 181° |
| 2026-05-04 15:18 | 28.44796 | -13.86585 | 86 ft | 25 kts | 181° |
| 2026-05-04 15:19 | 28.44414 | -13.86597 | 67 ft | 22 kts | 181° |
| 2026-05-04 15:19 | 28.44285 | -13.86602 | 63 ft | 20 kts | 181° |
| 2026-05-04 15:19 | 28.43962 | -13.86611 | 48 ft | 22 kts | 182° |
| 2026-05-04 15:20 | 28.43794 | -13.86618 | 44 ft | 26 kts | 182° |
| 2026-05-04 15:20 | 28.43598 | -13.86624 | 40 ft | 30 kts | 181° |
| 2026-05-04 15:20 | 28.43472 | -13.86628 | 35 ft | 14 kts | 181° |
| 2026-05-04 15:20 | 28.43364 | -13.86632 | 32 ft | 11 kts | 181° |
| 2026-05-04 15:21 | 28.43304 | -13.86588 | 33 ft | 13 kts | 100° |
| 2026-05-04 15:21 | 28.43302 | -13.86479 | 34 ft | 11 kts | 90° |
| 2026-05-04 15:21 | 28.43336 | -13.86440 | 34 ft | 0 kts | 2° |
| 2026-05-04 15:22 | 28.43411 | -13.86437 | 34 ft | 37 kts | 1° |
| 2026-05-04 15:22 | 28.44758 | -13.86395 | 70 ft | 144 kts | 2° |
| 2026-05-04 15:23 | 28.45840 | -13.86350 | 394 ft | 157 kts | 6° |
| 2026-05-04 15:23 | 28.46930 | -13.86234 | 1041 ft | 158 kts | 19° |
| 2026-05-04 15:23 | 28.47948 | -13.85744 | 1608 ft | 160 kts | 27° |
| 2026-05-04 15:23 | 28.48974 | -13.85139 | 1995 ft | 176 kts | 28° |
| 2026-05-04 15:24 | 28.51414 | -13.83669 | 2568 ft | 223 kts | 28° |
| 2026-05-04 15:24 | 28.54399 | -13.81893 | 3773 ft | 253 kts | 26° |
| 2026-05-04 15:25 | 28.55989 | -13.80954 | 4517 ft | 261 kts | 24° |
| 2026-05-04 15:25 | 28.57627 | -13.79993 | 5270 ft | 269 kts | 24° |
| 2026-05-04 15:25 | 28.59311 | -13.79017 | 6021 ft | 275 kts | 24° |
| 2026-05-04 15:26 | 28.62511 | -13.76439 | 7443 ft | 291 kts | 39° |
| 2026-05-04 15:26 | 28.64005 | -13.74846 | 8173 ft | 296 kts | 40° |
| 2026-05-04 15:26 | 28.67074 | -13.71542 | 9547 ft | 309 kts | 39° |
| 2026-05-04 15:27 | 28.68659 | -13.69858 | 10216 ft | 315 kts | 39° |
| 2026-05-04 15:27 | 28.72085 | -13.66262 | 10711 ft | 355 kts | 39° |
| 2026-05-04 15:28 | 28.75786 | -13.62366 | 11844 ft | 368 kts | 39° |
| 2026-05-04 15:28 | 28.77647 | -13.60394 | 12459 ft | 373 kts | 39° |
| 2026-05-04 15:28 | 28.81490 | -13.56315 | 13708 ft | 382 kts | 39° |
| 2026-05-04 15:29 | 28.83447 | -13.54240 | 14257 ft | 386 kts | 39° |
| 2026-05-04 15:30 | 28.91426 | -13.45740 | 16567 ft | 398 kts | 39° |
| 2026-05-04 15:30 | 28.97594 | -13.39183 | 18224 ft | 410 kts | 39° |
| 2026-05-04 15:31 | 29.01804 | -13.34706 | 19217 ft | 417 kts | 39° |
| 2026-05-04 15:31 | 29.03933 | -13.32431 | 19723 ft | 421 kts | 39° |
| 2026-05-04 15:32 | 29.10431 | -13.25489 | 21195 ft | 432 kts | 39° |
| 2026-05-04 15:32 | 29.14859 | -13.20759 | 22141 ft | 439 kts | 39° |
| 2026-05-04 15:33 | 29.19357 | -13.15943 | 23120 ft | 446 kts | 39° |
| 2026-05-04 15:34 | 29.26191 | -13.08609 | 24333 ft | 456 kts | 39° |
| 2026-05-04 15:34 | 29.28509 | -13.06114 | 24690 ft | 459 kts | 39° |
| 2026-05-04 15:34 | 29.33200 | -13.01071 | 25412 ft | 465 kts | 39° |
| 2026-05-04 15:35 | 29.37950 | -12.95958 | 26107 ft | 471 kts | 39° |
| 2026-05-04 15:35 | 29.40347 | -12.93374 | 26449 ft | 475 kts | 39° |
| 2026-05-04 15:35 | 29.42760 | -12.90771 | 26782 ft | 478 kts | 39° |
| 2026-05-04 15:36 | 29.47623 | -12.85516 | 27439 ft | 483 kts | 39° |
| 2026-05-04 15:36 | 29.50077 | -12.82863 | 27810 ft | 485 kts | 39° |
| 2026-05-04 15:36 | 29.52538 | -12.80201 | 28169 ft | 487 kts | 39° |
| 2026-05-04 15:37 | 29.55011 | -12.77526 | 28498 ft | 490 kts | 39° |
| 2026-05-04 15:37 | 29.57500 | -12.74833 | 28806 ft | 493 kts | 39° |
| 2026-05-04 15:37 | 29.59155 | -12.73040 | 29006 ft | 495 kts | 39° |
| 2026-05-04 15:37 | 29.61667 | -12.70319 | 29317 ft | 498 kts | 39° |
| 2026-05-04 15:38 | 29.64192 | -12.67579 | 29627 ft | 501 kts | 39° |
| 2026-05-04 15:38 | 29.66729 | -12.64822 | 29946 ft | 503 kts | 39° |
| 2026-05-04 15:38 | 29.69280 | -12.62049 | 30232 ft | 506 kts | 39° |
| 2026-05-04 15:38 | 29.71848 | -12.59253 | 30485 ft | 509 kts | 39° |
| 2026-05-04 15:39 | 29.74168 | -12.56154 | 30805 ft | 515 kts | 52° |
| 2026-05-04 15:39 | 29.76209 | -12.52758 | 31138 ft | 516 kts | 52° |
| 2026-05-04 15:39 | 29.80243 | -12.45912 | 31808 ft | 517 kts | 53° |
| 2026-05-04 15:40 | 29.82252 | -12.42474 | 32208 ft | 517 kts | 53° |
| 2026-05-04 15:40 | 29.84263 | -12.39035 | 32571 ft | 517 kts | 53° |
| 2026-05-04 15:40 | 29.86276 | -12.35607 | 32917 ft | 517 kts | 53° |
| 2026-05-04 15:40 | 29.88295 | -12.32180 | 33258 ft | 518 kts | 53° |
| 2026-05-04 15:41 | 29.90324 | -12.28739 | 33594 ft | 518 kts | 52° |
| 2026-05-04 15:41 | 29.92351 | -12.25301 | 33941 ft | 519 kts | 52° |
| 2026-05-04 15:41 | 29.94382 | -12.21856 | 34246 ft | 520 kts | 52° |
| 2026-05-04 15:41 | 29.96412 | -12.18409 | 34539 ft | 520 kts | 52° |
| 2026-05-04 15:42 | 29.98412 | -12.15003 | 34833 ft | 519 kts | 53° |
| 2026-05-04 15:42 | 30.00535 | -12.11649 | 35125 ft | 516 kts | 45° |
| 2026-05-04 15:42 | 30.02987 | -12.08668 | 35404 ft | 509 kts | 36° |
| 2026-05-04 15:42 | 30.05711 | -12.06089 | 35677 ft | 505 kts | 32° |
| 2026-05-04 15:43 | 30.08476 | -12.03591 | 35936 ft | 505 kts | 32° |
| 2026-05-04 15:43 | 30.11241 | -12.01086 | 36046 ft | 506 kts | 32° |
| 2026-05-04 15:43 | 30.14005 | -11.98568 | 36073 ft | 506 kts | 32° |
| 2026-05-04 15:44 | 30.19528 | -11.93501 | 36071 ft | 507 kts | 32° |
| 2026-05-04 15:44 | 30.25044 | -11.88426 | 36071 ft | 507 kts | 32° |
| 2026-05-04 15:45 | 30.30567 | -11.83362 | 36067 ft | 506 kts | 32° |
| 2026-05-04 15:45 | 30.36087 | -11.78297 | 36067 ft | 507 kts | 32° |
| 2026-05-04 15:46 | 30.41614 | -11.73224 | 36064 ft | 507 kts | 32° |
| 2026-05-04 15:46 | 30.47130 | -11.68133 | 36087 ft | 507 kts | 32° |
| 2026-05-04 15:47 | 30.52640 | -11.63030 | 36081 ft | 507 kts | 32° |
| 2026-05-04 15:47 | 30.58153 | -11.57934 | 36079 ft | 506 kts | 32° |
| 2026-05-04 15:48 | 30.63634 | -11.52877 | 36073 ft | 506 kts | 32° |
| 2026-05-04 15:48 | 30.71897 | -11.45224 | 36072 ft | 507 kts | 32° |
| 2026-05-04 15:49 | 30.77398 | -11.40105 | 36098 ft | 506 kts | 32° |
| 2026-05-04 15:49 | 30.82897 | -11.34980 | 36094 ft | 506 kts | 32° |
| 2026-05-04 15:50 | 30.88391 | -11.29865 | 36079 ft | 506 kts | 32° |
| 2026-05-04 15:50 | 30.93887 | -11.24746 | 36080 ft | 506 kts | 32° |
| 2026-05-04 15:51 | 30.99374 | -11.19618 | 36080 ft | 506 kts | 32° |
| 2026-05-04 15:51 | 31.04861 | -11.14484 | 36108 ft | 506 kts | 32° |
| 2026-05-04 15:52 | 31.10340 | -11.09338 | 36096 ft | 505 kts | 32° |
| 2026-05-04 15:52 | 31.15773 | -11.04231 | 36089 ft | 505 kts | 32° |
| 2026-05-04 15:53 | 31.21248 | -10.99092 | 36083 ft | 504 kts | 32° |
| 2026-05-04 15:53 | 31.26716 | -10.93950 | 36082 ft | 504 kts | 32° |
| 2026-05-04 15:54 | 31.32170 | -10.88800 | 36085 ft | 504 kts | 32° |
| 2026-05-04 15:54 | 31.37619 | -10.83652 | 36094 ft | 503 kts | 32° |
| 2026-05-04 15:55 | 31.43055 | -10.78510 | 36090 ft | 502 kts | 32° |
| 2026-05-04 15:55 | 31.48486 | -10.73363 | 36085 ft | 502 kts | 32° |
| 2026-05-04 15:56 | 31.53908 | -10.68216 | 36083 ft | 501 kts | 32° |
| 2026-05-04 15:56 | 31.59323 | -10.63065 | 36081 ft | 501 kts | 33° |
| 2026-05-04 15:57 | 31.64743 | -10.57908 | 36108 ft | 501 kts | 33° |
| 2026-05-04 15:57 | 31.70149 | -10.52747 | 36094 ft | 500 kts | 33° |
| 2026-05-04 15:58 | 31.75541 | -10.47587 | 36092 ft | 500 kts | 33° |
| 2026-05-04 15:58 | 31.80933 | -10.42432 | 36085 ft | 499 kts | 32° |
| 2026-05-04 15:59 | 31.86318 | -10.37287 | 36083 ft | 499 kts | 33° |
| 2026-05-04 15:59 | 31.91659 | -10.32163 | 36084 ft | 498 kts | 33° |
| 2026-05-04 16:00 | 31.97028 | -10.26998 | 36099 ft | 498 kts | 33° |
| 2026-05-04 16:00 | 32.02389 | -10.21838 | 36097 ft | 497 kts | 33° |
| 2026-05-04 16:01 | 32.07742 | -10.16679 | 36091 ft | 497 kts | 33° |
| 2026-05-04 16:01 | 32.13096 | -10.11510 | 36089 ft | 497 kts | 33° |
| 2026-05-04 16:02 | 32.18386 | -10.06397 | 36090 ft | 497 kts | 33° |
| 2026-05-04 16:03 | 32.26447 | -9.98573 | 36077 ft | 494 kts | 34° |
| 2026-05-04 16:03 | 32.31751 | -9.93423 | 36071 ft | 493 kts | 33° |
| 2026-05-04 16:04 | 32.37017 | -9.88310 | 36076 ft | 493 kts | 34° |
| 2026-05-04 16:04 | 32.44976 | -9.80575 | 36074 ft | 494 kts | 33° |
| 2026-05-04 16:05 | 32.50283 | -9.75397 | 36083 ft | 494 kts | 34° |
| 2026-05-04 16:06 | 32.58229 | -9.67610 | 36103 ft | 493 kts | 34° |
| 2026-05-04 16:07 | 32.68806 | -9.57233 | 36101 ft | 493 kts | 34° |
| 2026-05-04 16:08 | 32.79369 | -9.46854 | 36095 ft | 493 kts | 34° |
| 2026-05-04 16:09 | 32.92563 | -9.33831 | 36108 ft | 493 kts | 34° |
| 2026-05-04 16:10 | 33.03064 | -9.23425 | 36103 ft | 493 kts | 34° |
| 2026-05-04 16:11 | 33.13593 | -9.12958 | 36104 ft | 493 kts | 34° |
| 2026-05-04 16:12 | 33.29353 | -8.97212 | 36097 ft | 492 kts | 34° |
| 2026-05-04 16:13 | 33.39858 | -8.86693 | 36110 ft | 492 kts | 35° |
| 2026-05-04 16:14 | 33.50347 | -8.76140 | 36103 ft | 492 kts | 35° |
| 2026-05-04 16:16 | 33.63455 | -8.62923 | 36098 ft | 493 kts | 35° |
| 2026-05-04 16:17 | 33.76565 | -8.49639 | 36112 ft | 494 kts | 35° |
| 2026-05-04 16:18 | 33.87016 | -8.38986 | 36109 ft | 494 kts | 35° |
| 2026-05-04 16:19 | 34.00150 | -8.25590 | 36120 ft | 495 kts | 35° |
| 2026-05-04 16:20 | 34.13287 | -8.12126 | 36107 ft | 496 kts | 35° |
| 2026-05-04 16:22 | 34.26416 | -7.98608 | 36113 ft | 496 kts | 35° |
| 2026-05-04 16:23 | 34.42131 | -7.82341 | 36107 ft | 497 kts | 35° |
| 2026-05-04 16:25 | 34.57879 | -7.65978 | 36115 ft | 498 kts | 35° |
| 2026-05-04 16:26 | 34.76251 | -7.46777 | 36102 ft | 498 kts | 35° |
| 2026-05-04 16:28 | 34.89303 | -7.33034 | 36091 ft | 498 kts | 34° |
| 2026-05-04 16:29 | 35.06751 | -7.14613 | 36126 ft | 498 kts | 34° |
| 2026-05-04 16:31 | 35.19836 | -7.00720 | 36098 ft | 499 kts | 34° |
| 2026-05-04 16:32 | 35.35512 | -6.83981 | 36091 ft | 497 kts | 34° |
| 2026-05-04 16:33 | 35.45921 | -6.72828 | 36089 ft | 497 kts | 34° |
| 2026-05-04 16:34 | 35.53736 | -6.64429 | 36082 ft | 498 kts | 34° |
| 2026-05-04 16:35 | 35.69295 | -6.47639 | 36068 ft | 497 kts | 34° |
| 2026-05-04 16:36 | 35.77084 | -6.39188 | 36065 ft | 498 kts | 34° |
| 2026-05-04 16:37 | 35.85014 | -6.30952 | 36079 ft | 492 kts | 27° |
| 2026-05-04 16:38 | 35.96276 | -6.21337 | 36076 ft | 492 kts | 27° |
| 2026-05-04 16:39 | 36.10320 | -6.09285 | 36094 ft | 493 kts | 27° |
| 2026-05-04 16:40 | 36.21534 | -5.99628 | 36073 ft | 491 kts | 27° |
| 2026-05-04 16:41 | 36.26755 | -5.94053 | 36070 ft | 501 kts | 39° |
| 2026-05-04 16:41 | 36.34107 | -5.84830 | 36076 ft | 501 kts | 39° |
| 2026-05-04 16:43 | 36.46343 | -5.69450 | 36077 ft | 500 kts | 39° |
| 2026-05-04 16:43 | 36.53675 | -5.60192 | 36058 ft | 501 kts | 39° |
| 2026-05-04 16:45 | 36.68300 | -5.41659 | 36054 ft | 500 kts | 40° |
| 2026-05-04 16:46 | 36.80463 | -5.26186 | 36020 ft | 501 kts | 40° |
| 2026-05-04 16:47 | 36.90202 | -5.13702 | 36047 ft | 503 kts | 40° |
| 2026-05-04 16:48 | 36.99953 | -5.01187 | 36029 ft | 502 kts | 40° |
| 2026-05-04 16:49 | 37.05005 | -4.95244 | 36019 ft | 493 kts | 29° |
| 2026-05-04 16:49 | 37.10891 | -4.91188 | 36012 ft | 477 kts | 14° |
| 2026-05-04 16:50 | 37.23190 | -4.84800 | 36025 ft | 478 kts | 15° |
| 2026-05-04 16:51 | 37.32391 | -4.79962 | 36019 ft | 478 kts | 14° |
| 2026-05-04 16:52 | 37.44598 | -4.73568 | 36006 ft | 475 kts | 15° |
| 2026-05-04 16:53 | 37.53743 | -4.68754 | 35997 ft | 475 kts | 15° |
| 2026-05-04 16:54 | 37.65947 | -4.62312 | 36023 ft | 475 kts | 15° |
| 2026-05-04 16:55 | 37.84240 | -4.52596 | 35989 ft | 475 kts | 15° |
| 2026-05-04 16:56 | 37.99478 | -4.44489 | 35995 ft | 475 kts | 15° |
| 2026-05-04 16:57 | 38.08608 | -4.39600 | 35983 ft | 475 kts | 15° |
| 2026-05-04 16:58 | 38.20777 | -4.33047 | 36007 ft | 475 kts | 16° |
| 2026-05-04 17:00 | 38.39020 | -4.23235 | 35988 ft | 475 kts | 16° |
| 2026-05-04 17:00 | 38.48114 | -4.18311 | 36287 ft | 477 kts | 16° |
| 2026-05-04 17:01 | 38.54219 | -4.14991 | 36842 ft | 477 kts | 16° |
| 2026-05-04 17:01 | 38.60326 | -4.11668 | 37377 ft | 477 kts | 16° |
| 2026-05-04 17:02 | 38.66435 | -4.08342 | 37867 ft | 477 kts | 16° |
| 2026-05-04 17:02 | 38.72549 | -4.05008 | 37975 ft | 478 kts | 16° |
| 2026-05-04 17:03 | 38.75604 | -4.03338 | 37974 ft | 477 kts | 16° |
| 2026-05-04 17:03 | 38.84769 | -3.98323 | 37980 ft | 477 kts | 16° |
| 2026-05-04 17:04 | 38.96966 | -3.91625 | 37970 ft | 477 kts | 16° |
| 2026-05-04 17:05 | 39.09176 | -3.84884 | 38012 ft | 478 kts | 17° |
| 2026-05-04 17:06 | 39.18334 | -3.79814 | 37971 ft | 478 kts | 17° |
| 2026-05-04 17:07 | 39.26467 | -3.75310 | 37973 ft | 478 kts | 17° |
| 2026-05-04 17:07 | 39.33610 | -3.71351 | 38002 ft | 478 kts | 17° |
| 2026-05-04 17:08 | 39.42769 | -3.66242 | 37980 ft | 478 kts | 17° |
| 2026-05-04 17:09 | 39.48872 | -3.62820 | 37974 ft | 478 kts | 17° |
| 2026-05-04 17:09 | 39.54975 | -3.59405 | 37969 ft | 477 kts | 17° |
| 2026-05-04 17:10 | 39.70190 | -3.50858 | 37960 ft | 477 kts | 17° |
| 2026-05-04 17:11 | 39.76279 | -3.47426 | 37982 ft | 477 kts | 18° |
| 2026-05-04 17:12 | 39.84868 | -3.40572 | 37955 ft | 485 kts | 28° |
| 2026-05-04 17:13 | 39.98943 | -3.28466 | 37998 ft | 485 kts | 28° |
| 2026-05-04 17:14 | 40.09253 | -3.19565 | 37975 ft | 485 kts | 29° |
| 2026-05-04 17:15 | 40.17687 | -3.12254 | 37972 ft | 485 kts | 29° |
| 2026-05-04 17:16 | 40.28936 | -3.02477 | 37979 ft | 485 kts | 29° |
| 2026-05-04 17:17 | 40.40186 | -2.92645 | 37960 ft | 486 kts | 29° |
| 2026-05-04 17:18 | 40.51432 | -2.82767 | 37978 ft | 486 kts | 30° |
| 2026-05-04 17:19 | 40.62667 | -2.72864 | 37978 ft | 486 kts | 30° |
| 2026-05-04 17:20 | 40.73897 | -2.62944 | 37977 ft | 486 kts | 30° |
| 2026-05-04 17:20 | 40.82278 | -2.55495 | 37977 ft | 486 kts | 30° |
| 2026-05-04 17:21 | 40.93490 | -2.45496 | 37983 ft | 485 kts | 30° |
| 2026-05-04 17:22 | 40.99076 | -2.40509 | 37987 ft | 485 kts | 30° |
| 2026-05-04 17:23 | 41.09931 | -2.29804 | 37984 ft | 488 kts | 36° |
| 2026-05-04 17:24 | 41.17769 | -2.21163 | 37987 ft | 488 kts | 36° |
| 2026-05-04 17:25 | 41.28370 | -2.09872 | 37981 ft | 488 kts | 35° |
| 2026-05-04 17:26 | 41.38962 | -1.98548 | 37992 ft | 487 kts | 36° |
| 2026-05-04 17:27 | 41.52088 | -1.84403 | 37978 ft | 486 kts | 36° |
| 2026-05-04 17:28 | 41.62600 | -1.73036 | 37993 ft | 486 kts | 36° |
| 2026-05-04 17:29 | 41.78326 | -1.55917 | 38011 ft | 486 kts | 37° |
| 2026-05-04 17:31 | 41.91408 | -1.41623 | 37992 ft | 484 kts | 37° |
| 2026-05-04 17:32 | 42.04425 | -1.27278 | 37990 ft | 483 kts | 37° |
| 2026-05-04 17:33 | 42.14824 | -1.15788 | 37974 ft | 483 kts | 37° |
| 2026-05-04 17:34 | 42.25204 | -1.04264 | 37956 ft | 484 kts | 38° |
| 2026-05-04 17:35 | 42.38225 | -0.89753 | 37963 ft | 486 kts | 38° |
| 2026-05-04 17:36 | 42.43279 | -0.83677 | 37974 ft | 487 kts | 48° |
| 2026-05-04 17:36 | 42.47439 | -0.76516 | 37976 ft | 487 kts | 52° |
| 2026-05-04 17:37 | 42.51570 | -0.69259 | 37959 ft | 488 kts | 52° |
| 2026-05-04 17:37 | 42.55726 | -0.61944 | 37964 ft | 488 kts | 52° |
| 2026-05-04 17:38 | 42.59861 | -0.54626 | 37971 ft | 489 kts | 52° |
| 2026-05-04 17:38 | 42.63996 | -0.47291 | 38002 ft | 489 kts | 52° |
| 2026-05-04 17:39 | 42.70192 | -0.36284 | 38011 ft | 488 kts | 52° |
| 2026-05-04 17:39 | 42.74300 | -0.28957 | 38011 ft | 487 kts | 52° |
| 2026-05-04 17:40 | 42.78403 | -0.21619 | 38017 ft | 487 kts | 53° |
| 2026-05-04 17:40 | 42.82558 | -0.14332 | 38013 ft | 487 kts | 50° |
| 2026-05-04 17:41 | 42.86877 | -0.07230 | 38027 ft | 487 kts | 50° |
| 2026-05-04 17:41 | 42.91198 | -0.00193 | 37999 ft | 487 kts | 50° |
| 2026-05-04 17:42 | 42.95503 | 0.06944 | 38017 ft | 487 kts | 51° |
| 2026-05-04 17:42 | 42.99768 | 0.14120 | 38030 ft | 487 kts | 51° |
| 2026-05-04 17:43 | 43.04032 | 0.21314 | 38054 ft | 486 kts | 51° |
| 2026-05-04 17:43 | 43.08292 | 0.28486 | 38055 ft | 485 kts | 51° |
| 2026-05-04 17:44 | 43.12550 | 0.35652 | 38038 ft | 484 kts | 51° |
| 2026-05-04 17:44 | 43.16787 | 0.42812 | 38017 ft | 483 kts | 51° |
| 2026-05-04 17:45 | 43.21014 | 0.49982 | 38022 ft | 483 kts | 51° |
| 2026-05-04 17:45 | 43.25234 | 0.57157 | 38036 ft | 483 kts | 51° |
| 2026-05-04 17:46 | 43.29450 | 0.64336 | 38028 ft | 483 kts | 51° |
| 2026-05-04 17:46 | 43.33659 | 0.71512 | 38027 ft | 482 kts | 51° |
| 2026-05-04 17:47 | 43.37868 | 0.78693 | 37996 ft | 482 kts | 51° |
| 2026-05-04 17:47 | 43.42035 | 0.85857 | 37986 ft | 483 kts | 52° |
| 2026-05-04 17:48 | 43.46226 | 0.93092 | 37998 ft | 483 kts | 52° |
| 2026-05-04 17:48 | 43.50421 | 1.00327 | 38001 ft | 483 kts | 52° |
| 2026-05-04 17:49 | 43.54612 | 1.07565 | 37995 ft | 483 kts | 52° |
| 2026-05-04 17:49 | 43.58801 | 1.14814 | 37970 ft | 483 kts | 52° |
| 2026-05-04 17:50 | 43.62982 | 1.22077 | 37974 ft | 484 kts | 52° |
| 2026-05-04 17:50 | 43.67162 | 1.29360 | 37974 ft | 484 kts | 52° |
| 2026-05-04 17:51 | 43.71274 | 1.36725 | 37969 ft | 484 kts | 54° |
| 2026-05-04 17:51 | 43.75242 | 1.44248 | 37969 ft | 484 kts | 55° |
| 2026-05-04 17:52 | 43.79190 | 1.51790 | 37973 ft | 484 kts | 55° |
| 2026-05-04 17:52 | 43.83173 | 1.59304 | 37965 ft | 484 kts | 54° |
| 2026-05-04 17:53 | 43.87176 | 1.66818 | 37975 ft | 485 kts | 54° |
| 2026-05-04 17:53 | 43.91166 | 1.74347 | 37966 ft | 485 kts | 54° |
| 2026-05-04 17:54 | 43.95136 | 1.81904 | 37959 ft | 485 kts | 55° |
| 2026-05-04 17:54 | 43.99035 | 1.89528 | 37959 ft | 484 kts | 56° |
| 2026-05-04 17:55 | 44.02822 | 1.97191 | 37959 ft | 484 kts | 57° |
| 2026-05-04 17:55 | 44.06620 | 2.04922 | 37962 ft | 484 kts | 57° |
| 2026-05-04 17:56 | 44.10429 | 2.12635 | 37972 ft | 484 kts | 56° |
| 2026-05-04 17:56 | 44.14250 | 2.20343 | 37971 ft | 483 kts | 56° |
| 2026-05-04 17:57 | 44.18066 | 2.28048 | 37967 ft | 483 kts | 57° |
| 2026-05-04 17:57 | 44.21877 | 2.35794 | 37969 ft | 484 kts | 57° |
| 2026-05-04 17:58 | 44.25679 | 2.43555 | 37966 ft | 484 kts | 57° |
| 2026-05-04 17:58 | 44.29475 | 2.51329 | 37973 ft | 484 kts | 57° |
| 2026-05-04 17:59 | 44.32631 | 2.57788 | 37965 ft | 484 kts | 57° |
| 2026-05-04 18:00 | 44.38318 | 2.69468 | 37944 ft | 485 kts | 56° |
| 2026-05-04 18:00 | 44.42103 | 2.77276 | 37960 ft | 486 kts | 57° |
| 2026-05-04 18:01 | 44.45886 | 2.85115 | 37980 ft | 486 kts | 57° |
| 2026-05-04 18:01 | 44.49665 | 2.92965 | 37988 ft | 486 kts | 57° |
| 2026-05-04 18:02 | 44.55338 | 3.04746 | 37981 ft | 486 kts | 57° |
| 2026-05-04 18:02 | 44.59107 | 3.12610 | 37986 ft | 486 kts | 57° |
| 2026-05-04 18:03 | 44.62745 | 3.20522 | 37990 ft | 485 kts | 60° |
| 2026-05-04 18:03 | 44.66051 | 3.28776 | 37990 ft | 485 kts | 63° |
| 2026-05-04 18:04 | 44.69234 | 3.37130 | 38001 ft | 485 kts | 63° |
| 2026-05-04 18:05 | 44.74141 | 3.49580 | 37996 ft | 485 kts | 62° |
| 2026-05-04 18:05 | 44.77465 | 3.57844 | 37999 ft | 485 kts | 62° |
| 2026-05-04 18:06 | 44.82409 | 3.70267 | 37993 ft | 485 kts | 62° |
| 2026-05-04 18:06 | 44.85678 | 3.78570 | 37991 ft | 484 kts | 62° |
| 2026-05-04 18:07 | 44.88939 | 3.86877 | 37983 ft | 484 kts | 62° |
| 2026-05-04 18:07 | 44.92201 | 3.95182 | 37991 ft | 484 kts | 62° |
| 2026-05-04 18:08 | 44.95455 | 4.03501 | 38017 ft | 484 kts | 62° |
| 2026-05-04 18:08 | 44.98695 | 4.11819 | 38016 ft | 483 kts | 62° |
| 2026-05-04 18:09 | 45.05154 | 4.28469 | 38007 ft | 482 kts | 62° |
| 2026-05-04 18:10 | 45.08341 | 4.36705 | 38024 ft | 482 kts | 62° |
| 2026-05-04 18:10 | 45.11552 | 4.45036 | 38031 ft | 482 kts | 62° |
| 2026-05-04 18:11 | 45.14750 | 4.53367 | 38038 ft | 481 kts | 62° |
| 2026-05-04 18:11 | 45.17937 | 4.61699 | 38044 ft | 481 kts | 63° |
| 2026-05-04 18:12 | 45.21117 | 4.70030 | 38032 ft | 480 kts | 63° |
| 2026-05-04 18:12 | 45.24291 | 4.78371 | 38045 ft | 480 kts | 63° |
| 2026-05-04 18:13 | 45.27452 | 4.86717 | 38050 ft | 480 kts | 63° |
| 2026-05-04 18:14 | 45.32182 | 4.99234 | 38046 ft | 479 kts | 63° |
| 2026-05-04 18:14 | 45.35325 | 5.07571 | 38017 ft | 478 kts | 63° |
| 2026-05-04 18:15 | 45.41590 | 5.24290 | 38012 ft | 478 kts | 63° |
| 2026-05-04 18:16 | 45.44706 | 5.32653 | 38017 ft | 478 kts | 63° |
| 2026-05-04 18:16 | 45.47885 | 5.40971 | 38028 ft | 479 kts | 58° |
| 2026-05-04 18:17 | 45.52214 | 5.48144 | 38011 ft | 478 kts | 41° |
| 2026-05-04 18:17 | 45.54700 | 5.51298 | 38015 ft | 479 kts | 41° |
| 2026-05-04 18:18 | 45.62153 | 5.60808 | 38040 ft | 480 kts | 41° |
| 2026-05-04 18:18 | 45.67118 | 5.67187 | 38042 ft | 479 kts | 41° |
| 2026-05-04 18:19 | 45.74186 | 5.76272 | 38051 ft | 479 kts | 41° |
| 2026-05-04 18:19 | 45.79154 | 5.82653 | 38053 ft | 480 kts | 41° |
| 2026-05-04 18:20 | 45.84088 | 5.88998 | 38058 ft | 480 kts | 41° |
| 2026-05-04 18:20 | 45.89058 | 5.95404 | 38037 ft | 480 kts | 41° |
| 2026-05-04 18:21 | 45.94024 | 6.01824 | 38040 ft | 481 kts | 41° |
| 2026-05-04 18:21 | 45.98991 | 6.08263 | 38044 ft | 481 kts | 41° |
| 2026-05-04 18:22 | 46.03954 | 6.14715 | 38056 ft | 480 kts | 41° |
| 2026-05-04 18:22 | 46.08810 | 6.21317 | 38054 ft | 480 kts | 49° |
| 2026-05-04 18:23 | 46.12763 | 6.29060 | 38052 ft | 480 kts | 55° |
| 2026-05-04 18:23 | 46.16590 | 6.36938 | 38053 ft | 480 kts | 55° |
| 2026-05-04 18:24 | 46.20430 | 6.44811 | 38049 ft | 479 kts | 54° |
| 2026-05-04 18:24 | 46.24266 | 6.52691 | 38056 ft | 479 kts | 55° |
| 2026-05-04 18:25 | 46.28082 | 6.60585 | 38057 ft | 479 kts | 55° |
| 2026-05-04 18:25 | 46.31891 | 6.68498 | 38065 ft | 480 kts | 55° |
| 2026-05-04 18:26 | 46.35697 | 6.76413 | 38058 ft | 479 kts | 55° |
| 2026-05-04 18:26 | 46.39500 | 6.84320 | 38039 ft | 478 kts | 55° |
| 2026-05-04 18:27 | 46.43282 | 6.92235 | 38063 ft | 477 kts | 55° |
| 2026-05-04 18:27 | 46.47052 | 7.00143 | 38060 ft | 476 kts | 55° |
| 2026-05-04 18:28 | 46.50816 | 7.08044 | 38064 ft | 476 kts | 55° |
| 2026-05-04 18:28 | 46.54574 | 7.15951 | 38051 ft | 475 kts | 54° |
| 2026-05-04 18:29 | 46.59046 | 7.22936 | 38048 ft | 471 kts | 36° |
| 2026-05-04 18:29 | 46.64673 | 7.27655 | 38045 ft | 466 kts | 22° |
| 2026-05-04 18:30 | 46.73477 | 7.33566 | 38044 ft | 467 kts | 22° |
| 2026-05-04 18:31 | 46.79360 | 7.37555 | 38048 ft | 466 kts | 22° |
| 2026-05-04 18:31 | 46.84942 | 7.42357 | 38048 ft | 469 kts | 38° |
| 2026-05-04 18:32 | 46.89375 | 7.49352 | 38051 ft | 471 kts | 51° |
| 2026-05-04 18:32 | 46.93448 | 7.56846 | 38046 ft | 471 kts | 51° |
| 2026-05-04 18:33 | 46.97528 | 7.64353 | 38042 ft | 471 kts | 51° |
| 2026-05-04 18:33 | 47.01590 | 7.71866 | 38040 ft | 470 kts | 51° |
| 2026-05-04 18:34 | 47.05684 | 7.79451 | 37664 ft | 479 kts | 51° |
| 2026-05-04 18:34 | 47.07744 | 7.83282 | 37396 ft | 479 kts | 51° |
| 2026-05-04 18:34 | 47.09801 | 7.87118 | 37126 ft | 477 kts | 51° |
| 2026-05-04 18:34 | 47.11846 | 7.90938 | 36803 ft | 475 kts | 52° |
| 2026-05-04 18:35 | 47.13828 | 7.94792 | 36353 ft | 471 kts | 57° |
| 2026-05-04 18:35 | 47.15570 | 7.98849 | 35918 ft | 467 kts | 58° |
| 2026-05-04 18:35 | 47.17289 | 8.02880 | 35467 ft | 464 kts | 59° |
| 2026-05-04 18:35 | 47.19003 | 8.06896 | 35024 ft | 462 kts | 59° |
| 2026-05-04 18:36 | 47.20704 | 8.10886 | 34554 ft | 460 kts | 59° |
| 2026-05-04 18:36 | 47.22399 | 8.14865 | 34089 ft | 458 kts | 59° |
| 2026-05-04 18:36 | 47.24084 | 8.18828 | 33577 ft | 456 kts | 59° |
| 2026-05-04 18:36 | 47.25738 | 8.22726 | 33118 ft | 452 kts | 60° |
| 2026-05-04 18:37 | 47.27393 | 8.26641 | 32655 ft | 448 kts | 60° |
| 2026-05-04 18:37 | 47.29029 | 8.30517 | 32177 ft | 445 kts | 60° |
| 2026-05-04 18:37 | 47.30792 | 8.34262 | 31744 ft | 442 kts | 52° |
| 2026-05-04 18:37 | 47.32821 | 8.37655 | 31300 ft | 440 kts | 50° |
| 2026-05-04 18:38 | 47.34850 | 8.41003 | 30851 ft | 437 kts | 50° |
| 2026-05-04 18:38 | 47.36867 | 8.44338 | 30412 ft | 434 kts | 50° |
| 2026-05-04 18:38 | 47.38864 | 8.47654 | 29974 ft | 431 kts | 51° |
| 2026-05-04 18:38 | 47.40844 | 8.50956 | 29552 ft | 427 kts | 51° |
| 2026-05-04 18:39 | 47.42805 | 8.54232 | 29139 ft | 423 kts | 51° |
| 2026-05-04 18:39 | 47.44744 | 8.57478 | 28745 ft | 420 kts | 51° |
| 2026-05-04 18:39 | 47.46668 | 8.60704 | 28362 ft | 417 kts | 51° |
| 2026-05-04 18:39 | 47.48583 | 8.63906 | 27988 ft | 415 kts | 50° |
| 2026-05-04 18:40 | 47.50491 | 8.67096 | 27580 ft | 413 kts | 50° |
| 2026-05-04 18:40 | 47.52390 | 8.70276 | 27188 ft | 411 kts | 50° |
| 2026-05-04 18:40 | 47.54278 | 8.73441 | 26792 ft | 410 kts | 50° |
| 2026-05-04 18:40 | 47.56154 | 8.76597 | 26380 ft | 408 kts | 50° |
| 2026-05-04 18:41 | 47.58026 | 8.79754 | 25972 ft | 407 kts | 50° |
| 2026-05-04 18:41 | 47.59754 | 8.83047 | 25537 ft | 404 kts | 59° |
| 2026-05-04 18:41 | 47.61223 | 8.86578 | 25133 ft | 401 kts | 60° |
| 2026-05-04 18:41 | 47.62687 | 8.90097 | 24704 ft | 401 kts | 60° |
| 2026-05-04 18:42 | 47.64151 | 8.93602 | 24265 ft | 400 kts | 60° |
| 2026-05-04 18:42 | 47.65616 | 8.97106 | 23832 ft | 399 kts | 59° |
| 2026-05-04 18:42 | 47.67076 | 9.00598 | 23361 ft | 398 kts | 59° |
| 2026-05-04 18:42 | 47.68532 | 9.04087 | 22906 ft | 396 kts | 59° |
| 2026-05-04 18:43 | 47.69970 | 9.07547 | 22465 ft | 393 kts | 59° |
| 2026-05-04 18:43 | 47.71394 | 9.10985 | 22035 ft | 389 kts | 59° |
| 2026-05-04 18:43 | 47.72811 | 9.14404 | 21582 ft | 387 kts | 59° |
| 2026-05-04 18:43 | 47.74220 | 9.17797 | 21136 ft | 385 kts | 59° |
| 2026-05-04 18:44 | 47.75623 | 9.21167 | 20695 ft | 383 kts | 59° |
| 2026-05-04 18:44 | 47.76096 | 9.22304 | 20546 ft | 382 kts | 59° |
| 2026-05-04 18:44 | 47.78930 | 9.27252 | 19809 ft | 379 kts | 37° |
| 2026-05-04 18:44 | 47.81188 | 9.29220 | 19374 ft | 375 kts | 21° |
| 2026-05-04 18:45 | 47.83678 | 9.30274 | 18946 ft | 371 kts | 6° |
| 2026-05-04 18:45 | 47.85375 | 9.30485 | 18659 ft | 368 kts | 1° |
| 2026-05-04 18:45 | 47.87922 | 9.30674 | 18238 ft | 366 kts | 1° |
| 2026-05-04 18:45 | 47.90460 | 9.30862 | 17775 ft | 364 kts | 1° |
| 2026-05-04 18:46 | 47.92978 | 9.31050 | 17360 ft | 360 kts | 1° |
| 2026-05-04 18:46 | 47.95470 | 9.31236 | 16939 ft | 357 kts | 1° |
| 2026-05-04 18:46 | 47.97946 | 9.31425 | 16530 ft | 354 kts | 1° |
| 2026-05-04 18:46 | 48.00396 | 9.31613 | 16129 ft | 351 kts | 1° |
| 2026-05-04 18:47 | 48.02829 | 9.31801 | 15717 ft | 349 kts | 2° |
| 2026-05-04 18:47 | 48.05249 | 9.31985 | 15319 ft | 347 kts | 2° |
| 2026-05-04 18:47 | 48.07654 | 9.32165 | 14921 ft | 345 kts | 2° |
| 2026-05-04 18:47 | 48.10042 | 9.32343 | 14524 ft | 343 kts | 2° |
| 2026-05-04 18:48 | 48.12424 | 9.32524 | 14130 ft | 342 kts | 3° |
| 2026-05-04 18:48 | 48.14792 | 9.32709 | 13734 ft | 340 kts | 3° |
| 2026-05-04 18:48 | 48.17152 | 9.32904 | 13308 ft | 338 kts | 4° |
| 2026-05-04 18:48 | 48.19485 | 9.33197 | 12920 ft | 336 kts | 6° |
| 2026-05-04 18:49 | 48.21799 | 9.33566 | 12531 ft | 333 kts | 7° |
| 2026-05-04 18:49 | 48.24092 | 9.33968 | 12146 ft | 331 kts | 7° |
| 2026-05-04 18:49 | 48.26370 | 9.34375 | 11762 ft | 329 kts | 7° |
| 2026-05-04 18:49 | 48.28634 | 9.34771 | 11368 ft | 327 kts | 6° |
| 2026-05-04 18:50 | 48.30886 | 9.35155 | 11034 ft | 324 kts | 6° |
| 2026-05-04 18:50 | 48.33087 | 9.35523 | 10968 ft | 312 kts | 6° |
| 2026-05-04 18:50 | 48.35238 | 9.35877 | 10980 ft | 311 kts | 6° |
| 2026-05-04 18:50 | 48.37397 | 9.35918 | 10978 ft | 310 kts | 353° |
| 2026-05-04 18:51 | 48.39517 | 9.35310 | 10977 ft | 310 kts | 347° |
| 2026-05-04 18:51 | 48.41624 | 9.34626 | 10980 ft | 310 kts | 347° |
| 2026-05-04 18:51 | 48.43710 | 9.33959 | 10984 ft | 310 kts | 347° |
| 2026-05-04 18:51 | 48.45820 | 9.33288 | 10981 ft | 310 kts | 347° |
| 2026-05-04 18:52 | 48.47956 | 9.32610 | 10984 ft | 310 kts | 347° |
| 2026-05-04 18:52 | 48.50071 | 9.31940 | 10981 ft | 310 kts | 347° |
| 2026-05-04 18:52 | 48.52153 | 9.31278 | 10977 ft | 310 kts | 347° |
| 2026-05-04 18:52 | 48.54266 | 9.30608 | 10975 ft | 310 kts | 347° |
| 2026-05-04 18:53 | 48.56377 | 9.29935 | 10976 ft | 310 kts | 347° |
| 2026-05-04 18:53 | 48.58500 | 9.29357 | 10971 ft | 311 kts | 357° |
| 2026-05-04 18:53 | 48.60625 | 9.29817 | 10975 ft | 310 kts | 22° |
| 2026-05-04 18:53 | 48.62429 | 9.31517 | 10975 ft | 306 kts | 47° |
| 2026-05-04 18:54 | 48.63618 | 9.34130 | 10976 ft | 301 kts | 71° |
| 2026-05-04 18:54 | 48.64294 | 9.37113 | 10977 ft | 301 kts | 75° |
| 2026-05-04 18:54 | 48.64943 | 9.40125 | 10981 ft | 301 kts | 75° |
| 2026-05-04 18:54 | 48.65588 | 9.43134 | 10978 ft | 301 kts | 75° |
| 2026-05-04 18:55 | 48.66235 | 9.46143 | 10978 ft | 301 kts | 75° |
| 2026-05-04 18:55 | 48.67532 | 9.52154 | 10868 ft | 299 kts | 75° |
| 2026-05-04 18:55 | 48.68177 | 9.55132 | 10527 ft | 297 kts | 75° |
| 2026-05-04 18:56 | 48.68819 | 9.58102 | 10173 ft | 296 kts | 75° |
| 2026-05-04 18:56 | 48.69416 | 9.61087 | 9822 ft | 295 kts | 76° |
| 2026-05-04 18:56 | 48.69967 | 9.64067 | 9467 ft | 294 kts | 77° |
| 2026-05-04 18:56 | 48.70500 | 9.67045 | 9115 ft | 292 kts | 77° |
| 2026-05-04 18:57 | 48.71030 | 9.69997 | 8790 ft | 290 kts | 77° |
| 2026-05-04 18:57 | 48.71561 | 9.72936 | 8459 ft | 288 kts | 77° |
| 2026-05-04 18:57 | 48.72084 | 9.75816 | 8138 ft | 286 kts | 77° |
| 2026-05-04 18:57 | 48.72610 | 9.78705 | 7800 ft | 284 kts | 77° |
| 2026-05-04 18:58 | 48.73134 | 9.81581 | 7474 ft | 282 kts | 76° |
| 2026-05-04 18:58 | 48.74009 | 9.84222 | 7164 ft | 283 kts | 48° |
| 2026-05-04 18:58 | 48.75610 | 9.85910 | 6845 ft | 283 kts | 21° |
| 2026-05-04 18:58 | 48.77539 | 9.86327 | 6489 ft | 282 kts | 353° |
| 2026-05-04 18:59 | 48.79345 | 9.85349 | 6344 ft | 273 kts | 324° |
| 2026-05-04 18:59 | 48.80582 | 9.83289 | 6205 ft | 261 kts | 295° |
| 2026-05-04 18:59 | 48.81037 | 9.80691 | 5955 ft | 254 kts | 268° |
| 2026-05-04 18:59 | 48.80692 | 9.78110 | 5650 ft | 250 kts | 242° |
| 2026-05-04 19:00 | 48.79618 | 9.76087 | 5295 ft | 248 kts | 224° |
| 2026-05-04 19:00 | 48.78629 | 9.73957 | 4912 ft | 250 kts | 249° |
| 2026-05-04 19:00 | 48.78130 | 9.71416 | 4528 ft | 253 kts | 257° |
| 2026-05-04 19:00 | 48.77696 | 9.68839 | 4232 ft | 251 kts | 256° |
| 2026-05-04 19:01 | 48.77236 | 9.66298 | 4022 ft | 249 kts | 257° |
| 2026-05-04 19:01 | 48.76768 | 9.63770 | 4005 ft | 249 kts | 255° |
| 2026-05-04 19:01 | 48.76298 | 9.61242 | 4008 ft | 249 kts | 255° |
| 2026-05-04 19:01 | 48.75830 | 9.58714 | 4014 ft | 250 kts | 255° |
| 2026-05-04 19:02 | 48.75360 | 9.56184 | 4012 ft | 249 kts | 255° |
| 2026-05-04 19:02 | 48.74888 | 9.53644 | 4010 ft | 250 kts | 255° |
| 2026-05-04 19:02 | 48.74417 | 9.51117 | 4005 ft | 245 kts | 256° |
| 2026-05-04 19:02 | 48.73970 | 9.48722 | 4003 ft | 228 kts | 255° |
| 2026-05-04 19:03 | 48.73552 | 9.46486 | 3999 ft | 214 kts | 255° |
| 2026-05-04 19:03 | 48.73160 | 9.44383 | 3848 ft | 208 kts | 256° |
| 2026-05-04 19:03 | 48.72768 | 9.42288 | 3620 ft | 206 kts | 256° |
| 2026-05-04 19:03 | 48.72382 | 9.40228 | 3373 ft | 202 kts | 256° |
| 2026-05-04 19:04 | 48.72001 | 9.38197 | 3086 ft | 198 kts | 257° |
| 2026-05-04 19:04 | 48.71634 | 9.36242 | 2811 ft | 187 kts | 257° |
| 2026-05-04 19:04 | 48.71287 | 9.34402 | 2566 ft | 176 kts | 257° |
| 2026-05-04 19:04 | 48.70968 | 9.32707 | 2379 ft | 155 kts | 258° |
| 2026-05-04 19:05 | 48.70677 | 9.31186 | 2134 ft | 146 kts | 258° |
| 2026-05-04 19:05 | 48.70409 | 9.29754 | 1938 ft | 139 kts | 257° |
| 2026-05-04 19:05 | 48.70143 | 9.28357 | 1742 ft | 137 kts | 257° |
| 2026-05-04 19:05 | 48.69885 | 9.26979 | 1592 ft | 136 kts | 257° |
| 2026-05-04 19:06 | 48.69625 | 9.25600 | 1387 ft | 136 kts | 258° |
| 2026-05-04 19:06 | 48.69372 | 9.24228 | 1224 ft | 135 kts | 257° |
| 2026-05-04 19:06 | 48.69145 | 9.23015 | 1217 ft | 96 kts | 253° |
| 2026-05-04 19:06 | 48.69006 | 9.22293 | 1233 ft | 40 kts | 253° |
| 2026-05-04 19:07 | 48.68948 | 9.21971 | 1242 ft | 21 kts | 260° |
| 2026-05-04 19:07 | 48.68942 | 9.21755 | 1247 ft | 20 kts | 276° |
| 2026-05-04 19:07 | 48.68972 | 9.21561 | 1256 ft | 18 kts | 284° |
| 2026-05-04 19:07 | 48.69000 | 9.21386 | 1259 ft | 16 kts | 279° |
| 2026-05-04 19:08 | 48.68979 | 9.21222 | 1263 ft | 16 kts | 253° |
| 2026-05-04 19:08 | 48.68947 | 9.21058 | 1267 ft | 16 kts | 254° |
| 2026-05-04 19:08 | 48.68916 | 9.20891 | 1273 ft | 17 kts | 254° |
| 2026-05-04 19:08 | 48.68883 | 9.20720 | 1275 ft | 17 kts | 254° |
| 2026-05-04 19:09 | 48.68850 | 9.20547 | 1279 ft | 17 kts | 254° |
| 2026-05-04 19:09 | 48.68817 | 9.20371 | 1284 ft | 17 kts | 253° |
| 2026-05-04 19:09 | 48.68783 | 9.20193 | 1287 ft | 18 kts | 254° |
| 2026-05-04 19:09 | 48.68758 | 9.20043 | 1290 ft | 14 kts | 265° |
| 2026-05-04 19:10 | 48.68763 | 9.19907 | 1295 ft | 13 kts | 268° |
| 2026-05-04 19:10 | 48.68745 | 9.19780 | 1299 ft | 12 kts | 253° |
| 2026-05-04 19:10 | 48.68721 | 9.19654 | 1302 ft | 12 kts | 254° |
| 2026-05-04 19:10 | 48.68696 | 9.19528 | 1305 ft | 12 kts | 254° |
| 2026-05-04 19:11 | 48.68673 | 9.19402 | 1309 ft | 12 kts | 254° |
| 2026-05-04 19:11 | 48.68649 | 9.19278 | 1312 ft | 12 kts | 254° |
| 2026-05-04 19:11 | 48.68663 | 9.19171 | 1316 ft | 10 kts | 330° |
| 2026-05-04 19:11 | 48.68733 | 9.19143 | 1318 ft | 11 kts | 358° |
| 2026-05-04 19:12 | 48.68772 | 9.19207 | 1317 ft | 8 kts | 72° |
| 2026-05-04 19:12 | 48.68725 | 9.19261 | 1314 ft | 2 kts | 164° |
| 2026-05-04 19:12 | 48.68717 | 9.19265 | 1314 ft | 0 kts | 164° |